sensor_id;sensor_type;location;lat;lon;timestamp;pressure;altitude;pressure_sealevel;temperature;humidity
69214;BME280;56325;47.030;18.518;2022-07-12T00:00:32;100893.94;;;14.72;55.00
69214;BME280;56325;47.030;18.518;2022-07-12T00:03:38;100883.03;;;14.69;55.10
69214;BME280;56325;47.030;18.518;2022-07-12T00:06:43;100884.69;;;14.52;55.54
69214;BME280;56325;47.030;18.518;2022-07-12T00:09:47;100895.16;;;14.48;55.56
69214;BME280;56325;47.030;18.518;2022-07-12T00:12:52;100885.03;;;14.45;55.49
69214;BME280;56325;47.030;18.518;2022-07-12T00:15:57;100892.25;;;14.42;55.41
69214;BME280;56325;47.030;18.518;2022-07-12T00:19:03;100892.41;;;14.38;55.47
69214;BME280;56325;47.030;18.518;2022-07-12T00:22:08;100891.37;;;14.27;55.72
69214;BME280;56325;47.030;18.518;2022-07-12T00:25:12;100891.56;;;14.23;55.80
69214;BME280;56325;47.030;18.518;2022-07-12T00:28:17;100890.50;;;14.21;55.87
69214;BME280;56325;47.030;18.518;2022-07-12T00:31:22;100888.50;;;14.21;55.86
69214;BME280;56325;47.030;18.518;2022-07-12T00:34:28;100885.44;;;14.19;56.05
69214;BME280;56325;47.030;18.518;2022-07-12T00:37:33;100892.84;;;14.04;56.43
69214;BME280;56325;47.030;18.518;2022-07-12T00:40:37;100887.53;;;13.91;56.70
69214;BME280;56325;47.030;18.518;2022-07-12T00:43:42;100890.75;;;13.90;56.98
69214;BME280;56325;47.030;18.518;2022-07-12T00:46:46;100882.94;;;13.88;57.04
69214;BME280;56325;47.030;18.518;2022-07-12T00:49:52;100885.75;;;13.79;57.53
69214;BME280;56325;47.030;18.518;2022-07-12T00:52:57;100887.28;;;13.80;57.40
69214;BME280;56325;47.030;18.518;2022-07-12T00:56:02;100887.69;;;13.88;57.24
69214;BME280;56325;47.030;18.518;2022-07-12T00:59:07;100899.06;;;13.90;57.29
69214;BME280;56325;47.030;18.518;2022-07-12T01:02:12;100897.22;;;13.87;57.32
69214;BME280;56325;47.030;18.518;2022-07-12T01:05:18;100893.22;;;13.88;57.36
69214;BME280;56325;47.030;18.518;2022-07-12T01:08:23;100907.03;;;13.97;57.02
69214;BME280;56325;47.030;18.518;2022-07-12T01:11:28;100905.50;;;13.96;57.14
69214;BME280;56325;47.030;18.518;2022-07-12T01:14:34;100906.41;;;13.93;57.31
69214;BME280;56325;47.030;18.518;2022-07-12T01:17:39;100899.97;;;13.96;56.98
69214;BME280;56325;47.030;18.518;2022-07-12T01:20:45;100908.13;;;13.90;57.21
69214;BME280;56325;47.030;18.518;2022-07-12T01:23:51;100908.88;;;13.91;57.23
69214;BME280;56325;47.030;18.518;2022-07-12T01:26:56;100902.47;;;13.85;57.76
69214;BME280;56325;47.030;18.518;2022-07-12T01:30:01;100910.31;;;13.77;58.34
69214;BME280;56325;47.030;18.518;2022-07-12T01:33:06;100910.97;;;13.63;58.90
69214;BME280;56325;47.030;18.518;2022-07-12T01:36:11;100906.81;;;13.58;58.79
69214;BME280;56325;47.030;18.518;2022-07-12T01:39:17;100899.75;;;13.57;58.69
69214;BME280;56325;47.030;18.518;2022-07-12T01:42:23;100896.53;;;13.59;58.55
69214;BME280;56325;47.030;18.518;2022-07-12T01:45:27;100904.22;;;13.55;58.45
69214;BME280;56325;47.030;18.518;2022-07-12T01:48:32;100893.31;;;13.51;58.56
69214;BME280;56325;47.030;18.518;2022-07-12T01:51:36;100903.94;;;13.34;59.63
69214;BME280;56325;47.030;18.518;2022-07-12T01:54:48;100893.19;;;13.18;60.07
69214;BME280;56325;47.030;18.518;2022-07-12T01:57:53;100903.00;;;12.92;60.93
69214;BME280;56325;47.030;18.518;2022-07-12T02:00:58;100893.00;;;13.03;60.65
69214;BME280;56325;47.030;18.518;2022-07-12T02:04:03;100904.38;;;12.96;60.84
69214;BME280;56325;47.030;18.518;2022-07-12T02:07:08;100904.81;;;13.04;60.80
69214;BME280;56325;47.030;18.518;2022-07-12T02:10:14;100904.06;;;13.03;60.83
69214;BME280;56325;47.030;18.518;2022-07-12T02:13:19;100893.94;;;13.00;60.89
69214;BME280;56325;47.030;18.518;2022-07-12T02:16:23;100909.28;;;13.01;60.97
69214;BME280;56325;47.030;18.518;2022-07-12T02:19:28;100904.97;;;13.00;61.02
69214;BME280;56325;47.030;18.518;2022-07-12T02:22:32;100906.22;;;12.90;61.37
69214;BME280;56325;47.030;18.518;2022-07-12T02:25:39;100906.81;;;12.85;61.50
69214;BME280;56325;47.030;18.518;2022-07-12T02:28:43;100903.91;;;12.89;61.37
69214;BME280;56325;47.030;18.518;2022-07-12T02:31:48;100902.53;;;12.93;61.25
69214;BME280;56325;47.030;18.518;2022-07-12T02:34:53;100901.47;;;12.91;61.48
69214;BME280;56325;47.030;18.518;2022-07-12T02:37:57;100887.03;;;12.87;61.76
69214;BME280;56325;47.030;18.518;2022-07-12T02:41:03;100893.78;;;12.86;61.67
69214;BME280;56325;47.030;18.518;2022-07-12T02:44:08;100894.09;;;12.88;61.54
69214;BME280;56325;47.030;18.518;2022-07-12T02:47:12;100904.22;;;12.91;61.52
69214;BME280;56325;47.030;18.518;2022-07-12T02:50:17;100908.06;;;12.84;61.72
69214;BME280;56325;47.030;18.518;2022-07-12T02:53:21;100899.00;;;12.74;62.33
69214;BME280;56325;47.030;18.518;2022-07-12T02:56:27;100906.94;;;12.72;62.87
69214;BME280;56325;47.030;18.518;2022-07-12T02:59:31;100906.78;;;12.67;62.89
69214;BME280;56325;47.030;18.518;2022-07-12T03:02:36;100901.09;;;12.61;62.91
69214;BME280;56325;47.030;18.518;2022-07-12T03:05:41;100901.87;;;12.62;62.89
69214;BME280;56325;47.030;18.518;2022-07-12T03:08:46;100905.22;;;12.57;62.97
69214;BME280;56325;47.030;18.518;2022-07-12T03:11:52;100911.19;;;12.55;63.04
69214;BME280;56325;47.030;18.518;2022-07-12T03:14:56;100914.87;;;12.52;63.16
69214;BME280;56325;47.030;18.518;2022-07-12T03:18:01;100916.56;;;12.50;63.48
69214;BME280;56325;47.030;18.518;2022-07-12T03:21:06;100907.06;;;12.51;63.29
69214;BME280;56325;47.030;18.518;2022-07-12T03:24:10;100911.94;;;12.46;63.48
69214;BME280;56325;47.030;18.518;2022-07-12T03:27:16;100909.81;;;12.51;63.41
69214;BME280;56325;47.030;18.518;2022-07-12T03:30:20;100911.63;;;12.44;63.48
69214;BME280;56325;47.030;18.518;2022-07-12T03:33:25;100913.62;;;12.44;63.59
69214;BME280;56325;47.030;18.518;2022-07-12T03:36:35;100918.37;;;12.43;63.89
69214;BME280;56325;47.030;18.518;2022-07-12T03:39:39;100922.97;;;12.46;63.87
69214;BME280;56325;47.030;18.518;2022-07-12T03:42:55;100926.69;;;12.53;63.75
69214;BME280;56325;47.030;18.518;2022-07-12T03:46:48;100932.81;;;12.57;63.63
69214;BME280;56325;47.030;18.518;2022-07-12T03:49:53;100934.97;;;12.62;63.85
69214;BME280;56325;47.030;18.518;2022-07-12T03:52:57;100934.69;;;12.69;63.38
69214;BME280;56325;47.030;18.518;2022-07-12T03:56:02;100941.16;;;12.75;63.51
69214;BME280;56325;47.030;18.518;2022-07-12T03:59:09;100940.56;;;12.80;63.74
69214;BME280;56325;47.030;18.518;2022-07-12T04:02:13;100935.34;;;12.82;63.34
69214;BME280;56325;47.030;18.518;2022-07-12T04:05:17;100941.78;;;12.88;63.28
69214;BME280;56325;47.030;18.518;2022-07-12T04:08:22;100940.56;;;12.80;63.59
69214;BME280;56325;47.030;18.518;2022-07-12T04:11:26;100940.53;;;12.71;64.03
69214;BME280;56325;47.030;18.518;2022-07-12T04:19:48;100943.72;;;12.60;64.19
69214;BME280;56325;47.030;18.518;2022-07-12T04:22:52;100942.50;;;12.70;64.22
69214;BME280;56325;47.030;18.518;2022-07-12T04:25:57;100939.19;;;12.85;64.13
69214;BME280;56325;47.030;18.518;2022-07-12T04:29:01;100939.66;;;12.92;64.35
69214;BME280;56325;47.030;18.518;2022-07-12T04:32:18;100945.47;;;13.03;64.41
69214;BME280;56325;47.030;18.518;2022-07-12T04:35:23;100942.59;;;13.16;64.06
69214;BME280;56325;47.030;18.518;2022-07-12T04:38:28;100940.75;;;13.31;64.04
69214;BME280;56325;47.030;18.518;2022-07-12T04:41:33;100950.91;;;13.43;64.22
69214;BME280;56325;47.030;18.518;2022-07-12T04:44:38;100936.31;;;13.52;64.16
69214;BME280;56325;47.030;18.518;2022-07-12T04:47:49;100946.44;;;13.64;63.84
69214;BME280;56325;47.030;18.518;2022-07-12T04:50:57;100938.28;;;13.79;63.26
69214;BME280;56325;47.030;18.518;2022-07-12T05:25:27;100959.34;;;15.08;63.22
69214;BME280;56325;47.030;18.518;2022-07-12T05:28:40;100964.69;;;15.36;62.34
69214;BME280;56325;47.030;18.518;2022-07-12T05:31:44;100970.16;;;15.45;62.04
69214;BME280;56325;47.030;18.518;2022-07-12T05:34:48;100960.84;;;15.72;61.99
69214;BME280;56325;47.030;18.518;2022-07-12T05:37:53;100955.69;;;15.80;61.43
69214;BME280;56325;47.030;18.518;2022-07-12T05:40:58;100959.13;;;16.04;60.98
69214;BME280;56325;47.030;18.518;2022-07-12T05:44:03;100959.41;;;16.35;60.78
69214;BME280;56325;47.030;18.518;2022-07-12T05:47:17;100949.66;;;16.60;60.20
69214;BME280;56325;47.030;18.518;2022-07-12T05:54:20;100946.31;;;17.12;59.27
69214;BME280;56325;47.030;18.518;2022-07-12T05:57:34;100944.44;;;17.49;58.37
69214;BME280;56325;47.030;18.518;2022-07-12T06:00:38;100941.22;;;17.77;55.67
69214;BME280;56325;47.030;18.518;2022-07-12T06:03:43;100940.78;;;18.15;54.61
69214;BME280;56325;47.030;18.518;2022-07-12T06:06:57;100928.97;;;18.63;53.89
69214;BME280;56325;47.030;18.518;2022-07-12T06:10:43;100924.81;;;18.95;51.70
69214;BME280;56325;47.030;18.518;2022-07-12T06:13:49;100924.13;;;19.23;51.06
69214;BME280;56325;47.030;18.518;2022-07-12T06:17:01;100917.34;;;19.46;49.60
69214;BME280;56325;47.030;18.518;2022-07-12T06:20:59;100921.47;;;19.68;49.21
69214;BME280;56325;47.030;18.518;2022-07-12T06:24:14;100908.31;;;19.85;49.19
69214;BME280;56325;47.030;18.518;2022-07-12T06:27:18;100915.63;;;19.93;47.65
69214;BME280;56325;47.030;18.518;2022-07-12T06:30:24;100910.78;;;20.27;47.39
69214;BME280;56325;47.030;18.518;2022-07-12T06:33:29;100912.81;;;20.44;46.46
69214;BME280;56325;47.030;18.518;2022-07-12T06:36:43;100915.47;;;20.83;45.90
69214;BME280;56325;47.030;18.518;2022-07-12T06:39:45;100911.00;;;21.21;45.79
69214;BME280;56325;47.030;18.518;2022-07-12T06:42:52;100910.53;;;21.11;45.56
69214;BME280;56325;47.030;18.518;2022-07-12T06:45:58;100909.22;;;21.18;44.79
69214;BME280;56325;47.030;18.518;2022-07-12T06:49:14;100908.41;;;21.34;44.59
69214;BME280;56325;47.030;18.518;2022-07-12T06:53:28;100898.19;;;21.72;44.77
69214;BME280;56325;47.030;18.518;2022-07-12T06:56:33;100908.34;;;21.75;45.77
69214;BME280;56325;47.030;18.518;2022-07-12T06:59:37;100912.34;;;21.85;46.27
69214;BME280;56325;47.030;18.518;2022-07-12T07:02:43;100909.78;;;21.87;44.53
69214;BME280;56325;47.030;18.518;2022-07-12T07:05:48;100907.03;;;21.82;45.02
69214;BME280;56325;47.030;18.518;2022-07-12T07:08:53;100912.63;;;22.17;44.62
69214;BME280;56325;47.030;18.518;2022-07-12T07:11:57;100898.37;;;22.40;43.52
69214;BME280;56325;47.030;18.518;2022-07-12T07:15:02;100911.94;;;22.36;44.22
69214;BME280;56325;47.030;18.518;2022-07-12T07:18:25;100909.38;;;22.38;43.53
69214;BME280;56325;47.030;18.518;2022-07-12T07:21:29;100908.09;;;22.57;40.04
69214;BME280;56325;47.030;18.518;2022-07-12T07:24:34;100901.78;;;22.76;39.95
69214;BME280;56325;47.030;18.518;2022-07-12T07:27:38;100910.78;;;23.12;39.26
69214;BME280;56325;47.030;18.518;2022-07-12T07:30:43;100901.16;;;23.07;37.45
69214;BME280;56325;47.030;18.518;2022-07-12T07:33:57;100899.91;;;23.40;37.30
69214;BME280;56325;47.030;18.518;2022-07-12T07:37:01;100911.50;;;23.69;36.89
69214;BME280;56325;47.030;18.518;2022-07-12T07:40:07;100901.34;;;23.66;35.92
69214;BME280;56325;47.030;18.518;2022-07-12T07:43:11;100896.91;;;24.02;36.37
69214;BME280;56325;47.030;18.518;2022-07-12T07:46:16;100897.03;;;23.65;37.30
69214;BME280;56325;47.030;18.518;2022-07-12T07:49:22;100889.31;;;23.84;36.89
69214;BME280;56325;47.030;18.518;2022-07-12T07:52:26;100896.88;;;23.89;36.87
69214;BME280;56325;47.030;18.518;2022-07-12T07:55:30;100879.78;;;24.19;36.63
69214;BME280;56325;47.030;18.518;2022-07-12T07:58:35;100886.97;;;24.01;36.59
69214;BME280;56325;47.030;18.518;2022-07-12T08:01:39;100880.44;;;24.38;35.07
69214;BME280;56325;47.030;18.518;2022-07-12T08:04:50;100893.50;;;24.23;34.27
69214;BME280;56325;47.030;18.518;2022-07-12T08:07:54;100886.75;;;23.99;35.12
69214;BME280;56325;47.030;18.518;2022-07-12T08:10:59;100886.50;;;24.56;33.78
69214;BME280;56325;47.030;18.518;2022-07-12T08:14:06;100890.72;;;24.49;32.81
69214;BME280;56325;47.030;18.518;2022-07-12T08:17:11;100880.31;;;24.31;33.25
69214;BME280;56325;47.030;18.518;2022-07-12T08:20:17;100890.09;;;23.98;34.00
69214;BME280;56325;47.030;18.518;2022-07-12T08:23:42;100901.84;;;23.83;34.27
69214;BME280;56325;47.030;18.518;2022-07-12T08:26:46;100900.53;;;23.84;35.25
69214;BME280;56325;47.030;18.518;2022-07-12T08:29:51;100899.66;;;23.76;35.08
69214;BME280;56325;47.030;18.518;2022-07-12T08:32:55;100902.59;;;23.83;34.80
69214;BME280;56325;47.030;18.518;2022-07-12T08:36:01;100907.59;;;23.59;34.64
69214;BME280;56325;47.030;18.518;2022-07-12T08:39:06;100890.44;;;23.62;34.68
69214;BME280;56325;47.030;18.518;2022-07-12T08:42:14;100893.00;;;23.60;34.61
69214;BME280;56325;47.030;18.518;2022-07-12T08:45:19;100892.81;;;23.39;34.01
69214;BME280;56325;47.030;18.518;2022-07-12T08:48:23;100888.84;;;23.48;33.97
69214;BME280;56325;47.030;18.518;2022-07-12T08:51:29;100871.50;;;23.95;34.50
69214;BME280;56325;47.030;18.518;2022-07-12T08:54:38;100894.56;;;24.06;32.91
69214;BME280;56325;47.030;18.518;2022-07-12T08:57:43;100882.22;;;23.96;33.17
69214;BME280;56325;47.030;18.518;2022-07-12T09:00:48;100880.22;;;24.23;33.56
69214;BME280;56325;47.030;18.518;2022-07-12T09:04:10;100883.50;;;23.95;33.08
69214;BME280;56325;47.030;18.518;2022-07-12T09:07:17;100887.03;;;24.28;33.43
69214;BME280;56325;47.030;18.518;2022-07-12T09:10:21;100887.31;;;24.11;32.73
69214;BME280;56325;47.030;18.518;2022-07-12T09:13:45;100892.59;;;24.01;33.08
69214;BME280;56325;47.030;18.518;2022-07-12T09:16:59;100890.59;;;23.83;33.40
69214;BME280;56325;47.030;18.518;2022-07-12T09:20:05;100883.09;;;24.04;33.70
69214;BME280;56325;47.030;18.518;2022-07-12T09:23:14;100892.19;;;24.24;35.11
69214;BME280;56325;47.030;18.518;2022-07-12T09:26:18;100893.28;;;24.21;33.79
69214;BME280;56325;47.030;18.518;2022-07-12T09:29:23;100889.16;;;24.08;33.44
69214;BME280;56325;47.030;18.518;2022-07-12T09:32:28;100886.69;;;24.18;33.52
69214;BME280;56325;47.030;18.518;2022-07-12T09:35:59;100888.94;;;24.06;33.73
69214;BME280;56325;47.030;18.518;2022-07-12T09:39:12;100879.22;;;24.07;34.13
69214;BME280;56325;47.030;18.518;2022-07-12T09:42:18;100883.31;;;24.06;33.04
69214;BME280;56325;47.030;18.518;2022-07-12T09:45:30;100887.78;;;23.83;33.64
69214;BME280;56325;47.030;18.518;2022-07-12T09:48:36;100893.38;;;23.70;33.60
69214;BME280;56325;47.030;18.518;2022-07-12T09:51:42;100891.88;;;24.14;34.07
69214;BME280;56325;47.030;18.518;2022-07-12T09:54:51;100895.31;;;24.07;33.29
69214;BME280;56325;47.030;18.518;2022-07-12T09:57:57;100888.19;;;24.19;33.32
69214;BME280;56325;47.030;18.518;2022-07-12T10:01:06;100884.22;;;24.28;32.85
69214;BME280;56325;47.030;18.518;2022-07-12T10:04:20;100876.84;;;24.77;33.58
69214;BME280;56325;47.030;18.518;2022-07-12T10:07:25;100878.16;;;24.63;31.91
69214;BME280;56325;47.030;18.518;2022-07-12T10:10:31;100886.59;;;24.76;32.49
69214;BME280;56325;47.030;18.518;2022-07-12T10:13:37;100866.28;;;25.38;31.88
69214;BME280;56325;47.030;18.518;2022-07-12T10:16:42;100865.13;;;25.34;31.46
69214;BME280;56325;47.030;18.518;2022-07-12T10:19:47;100862.31;;;25.34;32.13
69214;BME280;56325;47.030;18.518;2022-07-12T10:22:52;100868.66;;;25.13;29.89
69214;BME280;56325;47.030;18.518;2022-07-12T10:25:58;100871.75;;;25.02;28.94
69214;BME280;56325;47.030;18.518;2022-07-12T10:29:04;100853.53;;;25.37;28.13
69214;BME280;56325;47.030;18.518;2022-07-12T10:32:20;100860.72;;;24.78;27.85
69214;BME280;56325;47.030;18.518;2022-07-12T10:35:26;100863.56;;;24.65;28.63
69214;BME280;56325;47.030;18.518;2022-07-12T10:38:31;100868.66;;;24.53;29.17
69214;BME280;56325;47.030;18.518;2022-07-12T10:41:37;100857.63;;;24.55;30.10
69214;BME280;56325;47.030;18.518;2022-07-12T10:44:44;100838.75;;;25.03;29.74
69214;BME280;56325;47.030;18.518;2022-07-12T10:47:55;100850.84;;;25.53;29.88
69214;BME280;56325;47.030;18.518;2022-07-12T10:51:12;100831.84;;;25.87;28.53
69214;BME280;56325;47.030;18.518;2022-07-12T10:54:21;100844.25;;;25.29;28.51
69214;BME280;56325;47.030;18.518;2022-07-12T10:57:40;100843.09;;;24.77;29.09
69214;BME280;56325;47.030;18.518;2022-07-12T11:00:46;100852.22;;;24.57;29.11
69214;BME280;56325;47.030;18.518;2022-07-12T11:03:55;100857.28;;;24.59;29.69
69214;BME280;56325;47.030;18.518;2022-07-12T11:07:01;100861.72;;;24.41;30.57
69214;BME280;56325;47.030;18.518;2022-07-12T11:10:07;100857.28;;;24.32;30.71
69214;BME280;56325;47.030;18.518;2022-07-12T11:13:23;100864.31;;;24.39;30.97
69214;BME280;56325;47.030;18.518;2022-07-12T11:16:30;100867.00;;;24.18;31.17
69214;BME280;56325;47.030;18.518;2022-07-12T11:19:41;100861.28;;;24.10;31.01
69214;BME280;56325;47.030;18.518;2022-07-12T11:22:57;100856.41;;;23.98;31.93
69214;BME280;56325;47.030;18.518;2022-07-12T11:26:03;100867.69;;;23.79;32.18
69214;BME280;56325;47.030;18.518;2022-07-12T11:29:11;100865.91;;;23.63;32.41
69214;BME280;56325;47.030;18.518;2022-07-12T11:32:16;100876.94;;;23.42;33.35
69214;BME280;56325;47.030;18.518;2022-07-12T11:35:20;100878.78;;;23.39;33.70
69214;BME280;56325;47.030;18.518;2022-07-12T11:38:57;100888.66;;;23.27;33.84
69214;BME280;56325;47.030;18.518;2022-07-12T11:42:04;100876.75;;;23.21;33.69
69214;BME280;56325;47.030;18.518;2022-07-12T11:45:14;100882.75;;;23.12;34.14
69214;BME280;56325;47.030;18.518;2022-07-12T11:48:19;100880.31;;;23.03;34.36
69214;BME280;56325;47.030;18.518;2022-07-12T11:51:26;100878.78;;;23.02;34.83
69214;BME280;56325;47.030;18.518;2022-07-12T11:54:31;100889.41;;;22.90;34.80
69214;BME280;56325;47.030;18.518;2022-07-12T11:57:35;100880.31;;;23.03;34.85
69214;BME280;56325;47.030;18.518;2022-07-12T12:00:41;100881.22;;;23.11;35.13
69214;BME280;56325;47.030;18.518;2022-07-12T12:03:46;100871.75;;;23.14;34.95
69214;BME280;56325;47.030;18.518;2022-07-12T12:06:52;100874.31;;;23.31;34.95
69214;BME280;56325;47.030;18.518;2022-07-12T12:10:01;100868.63;;;23.36;34.72
69214;BME280;56325;47.030;18.518;2022-07-12T12:13:12;100866.91;;;23.46;35.15
69214;BME280;56325;47.030;18.518;2022-07-12T12:16:19;100866.69;;;23.63;35.91
69214;BME280;56325;47.030;18.518;2022-07-12T12:19:24;100857.72;;;23.65;34.41
69214;BME280;56325;47.030;18.518;2022-07-12T12:22:53;100848.16;;;23.86;33.90
69214;BME280;56325;47.030;18.518;2022-07-12T12:26:14;100851.88;;;24.21;34.09
69214;BME280;56325;47.030;18.518;2022-07-12T12:29:39;100846.03;;;24.19;33.58
69214;BME280;56325;47.030;18.518;2022-07-12T12:32:48;100834.59;;;24.30;34.58
69214;BME280;56325;47.030;18.518;2022-07-12T12:36:14;100843.56;;;24.29;34.37
69214;BME280;56325;47.030;18.518;2022-07-12T12:39:29;100839.56;;;24.50;33.97
69214;BME280;56325;47.030;18.518;2022-07-12T12:42:33;100843.44;;;24.74;32.44
69214;BME280;56325;47.030;18.518;2022-07-12T12:45:48;100840.09;;;24.62;31.39
69214;BME280;56325;47.030;18.518;2022-07-12T12:48:59;100829.72;;;24.57;30.22
69214;BME280;56325;47.030;18.518;2022-07-12T12:52:07;100831.31;;;24.79;30.25
69214;BME280;56325;47.030;18.518;2022-07-12T12:55:11;100820.47;;;24.96;29.04
69214;BME280;56325;47.030;18.518;2022-07-12T12:58:18;100823.28;;;24.96;28.01
69214;BME280;56325;47.030;18.518;2022-07-12T13:01:25;100817.44;;;25.15;28.62
69214;BME280;56325;47.030;18.518;2022-07-12T13:04:41;100827.31;;;25.84;28.21
69214;BME280;56325;47.030;18.518;2022-07-12T13:07:45;100821.47;;;26.10;27.62
69214;BME280;56325;47.030;18.518;2022-07-12T13:10:50;100807.56;;;26.41;27.32
69214;BME280;56325;47.030;18.518;2022-07-12T13:14:15;100808.91;;;26.48;27.22
69214;BME280;56325;47.030;18.518;2022-07-12T13:17:19;100801.81;;;26.26;26.78
69214;BME280;56325;47.030;18.518;2022-07-12T13:20:34;100800.31;;;26.61;27.50
69214;BME280;56325;47.030;18.518;2022-07-12T13:23:42;100818.09;;;26.12;27.29
69214;BME280;56325;47.030;18.518;2022-07-12T13:26:47;100810.09;;;25.67;27.49
69214;BME280;56325;47.030;18.518;2022-07-12T13:29:52;100814.53;;;25.62;28.35
69214;BME280;56325;47.030;18.518;2022-07-12T13:32:56;100819.81;;;25.45;28.58
69214;BME280;56325;47.030;18.518;2022-07-12T13:36:02;100814.19;;;25.45;28.19
69214;BME280;56325;47.030;18.518;2022-07-12T13:39:08;100806.06;;;25.62;27.81
69214;BME280;56325;47.030;18.518;2022-07-12T13:42:29;100799.13;;;25.84;27.60
69214;BME280;56325;47.030;18.518;2022-07-12T13:45:34;100791.53;;;26.00;27.57
69214;BME280;56325;47.030;18.518;2022-07-12T13:48:39;100797.62;;;26.48;26.00
69214;BME280;56325;47.030;18.518;2022-07-12T13:51:56;100800.66;;;25.85;26.29
69214;BME280;56325;47.030;18.518;2022-07-12T13:55:05;100783.81;;;26.00;26.94
69214;BME280;56325;47.030;18.518;2022-07-12T13:58:10;100787.22;;;25.99;26.20
69214;BME280;56325;47.030;18.518;2022-07-12T14:01:15;100792.28;;;25.72;26.16
69214;BME280;56325;47.030;18.518;2022-07-12T14:04:19;100789.94;;;25.42;26.75
69214;BME280;56325;47.030;18.518;2022-07-12T14:07:25;100791.25;;;25.41;27.49
69214;BME280;56325;47.030;18.518;2022-07-12T14:10:30;100788.00;;;25.16;28.38
69214;BME280;56325;47.030;18.518;2022-07-12T14:13:36;100792.41;;;25.04;28.12
69214;BME280;56325;47.030;18.518;2022-07-12T14:16:40;100787.88;;;25.01;28.18
69214;BME280;56325;47.030;18.518;2022-07-12T14:19:48;100792.56;;;24.85;27.89
69214;BME280;56325;47.030;18.518;2022-07-12T14:22:54;100780.88;;;24.81;28.38
69214;BME280;56325;47.030;18.518;2022-07-12T14:26:06;100793.25;;;25.12;27.47
69214;BME280;56325;47.030;18.518;2022-07-12T14:29:12;100804.09;;;25.08;28.08
69214;BME280;56325;47.030;18.518;2022-07-12T14:32:16;100794.81;;;25.21;29.09
69214;BME280;56325;47.030;18.518;2022-07-12T14:35:21;100801.59;;;25.25;29.77
69214;BME280;56325;47.030;18.518;2022-07-12T14:38:38;100811.72;;;24.73;30.40
69214;BME280;56325;47.030;18.518;2022-07-12T14:42:03;100805.03;;;24.63;30.70
69214;BME280;56325;47.030;18.518;2022-07-12T14:45:08;100787.00;;;25.06;29.30
69214;BME280;56325;47.030;18.518;2022-07-12T14:48:13;100792.00;;;25.00;29.66
69214;BME280;56325;47.030;18.518;2022-07-12T14:51:28;100788.00;;;25.16;30.05
69214;BME280;56325;47.030;18.518;2022-07-12T14:55:09;100778.06;;;25.36;29.88
69214;BME280;56325;47.030;18.518;2022-07-12T14:58:15;100762.81;;;25.52;29.26
69214;BME280;56325;47.030;18.518;2022-07-12T15:01:19;100767.19;;;25.61;27.50
69214;BME280;56325;47.030;18.518;2022-07-12T15:04:24;100775.25;;;25.57;27.74
69214;BME280;56325;47.030;18.518;2022-07-12T15:07:28;100776.25;;;25.88;28.92
69214;BME280;56325;47.030;18.518;2022-07-12T15:10:44;100761.66;;;25.97;28.07
69214;BME280;56325;47.030;18.518;2022-07-12T15:14:46;100754.47;;;25.88;27.58
69214;BME280;56325;47.030;18.518;2022-07-12T15:17:59;100761.09;;;25.98;27.23
69214;BME280;56325;47.030;18.518;2022-07-12T15:27:44;100753.44;;;25.78;27.33
69214;BME280;56325;47.030;18.518;2022-07-12T15:30:49;100745.81;;;25.86;27.39
69214;BME280;56325;47.030;18.518;2022-07-12T15:33:53;100759.78;;;25.99;27.46
69214;BME280;56325;47.030;18.518;2022-07-12T15:36:58;100760.84;;;25.89;27.61
69214;BME280;56325;47.030;18.518;2022-07-12T15:40:02;100765.13;;;25.82;26.65
69214;BME280;56325;47.030;18.518;2022-07-12T15:43:08;100757.47;;;25.90;26.71
69214;BME280;56325;47.030;18.518;2022-07-12T15:46:14;100752.34;;;25.60;27.05
69214;BME280;56325;47.030;18.518;2022-07-12T15:49:18;100753.41;;;25.70;27.47
69214;BME280;56325;47.030;18.518;2022-07-12T15:52:22;100743.91;;;25.81;27.46
69214;BME280;56325;47.030;18.518;2022-07-12T15:55:45;100752.09;;;25.71;28.34
69214;BME280;56325;47.030;18.518;2022-07-12T15:59:14;100750.94;;;25.67;28.13
69214;BME280;56325;47.030;18.518;2022-07-12T16:02:48;100746.50;;;25.79;28.41
69214;BME280;56325;47.030;18.518;2022-07-12T16:05:54;100754.06;;;25.63;28.60
69214;BME280;56325;47.030;18.518;2022-07-12T16:08:58;100745.56;;;25.56;28.47
69214;BME280;56325;47.030;18.518;2022-07-12T16:12:04;100751.59;;;25.60;28.92
69214;BME280;56325;47.030;18.518;2022-07-12T16:15:34;100745.63;;;25.63;28.79
69214;BME280;56325;47.030;18.518;2022-07-12T16:18:43;100755.13;;;25.32;28.59
69214;BME280;56325;47.030;18.518;2022-07-12T16:21:47;100752.72;;;25.15;28.93
69214;BME280;56325;47.030;18.518;2022-07-12T16:25:03;100754.84;;;25.22;29.55
69214;BME280;56325;47.030;18.518;2022-07-12T16:28:13;100759.19;;;25.23;28.89
69214;BME280;56325;47.030;18.518;2022-07-12T16:31:19;100763.53;;;25.03;28.75
69214;BME280;56325;47.030;18.518;2022-07-12T16:34:44;100770.59;;;24.97;28.93
69214;BME280;56325;47.030;18.518;2022-07-12T16:37:49;100761.00;;;25.13;28.22
69214;BME280;56325;47.030;18.518;2022-07-12T16:40:53;100750.34;;;24.98;28.44
69214;BME280;56325;47.030;18.518;2022-07-12T16:43:58;100766.28;;;24.82;28.75
69214;BME280;56325;47.030;18.518;2022-07-12T16:47:04;100763.13;;;24.86;29.04
69214;BME280;56325;47.030;18.518;2022-07-12T16:50:08;100770.31;;;24.74;29.11
69214;BME280;56325;47.030;18.518;2022-07-12T16:53:13;100798.34;;;24.53;28.88
69214;BME280;56325;47.030;18.518;2022-07-12T16:56:18;100790.28;;;24.36;28.68
69214;BME280;56325;47.030;18.518;2022-07-12T16:59:22;100784.09;;;24.38;28.52